Bow Sirius — LACQ7 — position and weather

sailwx.info

Track history (hours):
 
Tides and Currents Weather Stations Pressure Air Temp Water Temp Dewpoint Dewpoint Depression Visibility Wind Speed Wind Dir Waves Ship Positions

Bow Sirius

Last reported at 2017-Nov-10 17:17 UTC. Time now 2017-Nov-24 14:57 UTC.
Position N 29°24' W 094°49'.
Warning: this ship's position is 13 days out of date.

Length 183 m; draft 11.5 m.

Type: Tanker. MMSI: 258910000.

Date/timePositionNaut miles runAvg speedWind from/ knotsBaromVisibWave heightAir tempDewpointWater temp
2017-Nov-10 17:17N 29°24' W 094°49'311.7
2017-Nov-10 17:01N 29°27' W 094°50'510.7
2017-Nov-10 16:31N 29°31' W 094°53'510.3
2017-Nov-10 16:01N 29°36' W 094°57'5 9.2
2017-Nov-10 15:31N 29°40' W 094°59'4 7.8
2017-Nov-10 14:59N 29°43' W 095°01'3 5.8
2017-Nov-10 14:30N 29°45' W 095°04'3 5.2
2017-Nov-10 13:57N 29°44' W 095°07'2 5.6
2017-Nov-10 13:31N 29°45' W 095°10'3 5.1
2017-Nov-10 12:56N 29°43' W 095°13'1 0.4
2017-Nov-10 10:45N 29°43' W 095°14'0 0.0
2017-Nov-10 10:30N 29°43' W 095°14'0 0.0
2017-Nov-10 10:00N 29°43' W 095°14'0 0.0
2017-Nov-10 09:30N 29°43' W 095°14'0 0.0
2017-Nov-10 09:00N 29°43' W 095°14'0 0.0
2017-Nov-10 08:30N 29°43' W 095°14'0 0.0
2017-Nov-10 08:00N 29°43' W 095°14'0 0.0
2017-Nov-10 07:30N 29°43' W 095°14'0 0.0
2017-Nov-10 07:00N 29°43' W 095°14'0 0.0
2017-Nov-10 06:30N 29°43' W 095°14'0 0.0
2017-Nov-10 06:00N 29°43' W 095°14'0 0.0
2017-Nov-10 05:30N 29°43' W 095°14'0 0.0
2017-Nov-10 05:00N 29°43' W 095°14'0 0.0
2017-Nov-10 04:30N 29°43' W 095°14'0 0.0
2017-Nov-10 04:00N 29°43' W 095°14'0 0.0
2017-Nov-10 03:30N 29°43' W 095°14'0 0.0
2017-Nov-10 03:00N 29°43' W 095°14'0 0.0
2017-Nov-10 02:30N 29°43' W 095°14'0 0.0
2017-Nov-10 02:00N 29°43' W 095°14'0 0.0
2017-Nov-10 01:30N 29°43' W 095°14'0 0.0
2017-Nov-10 01:00N 29°43' W 095°14'0 0.0
2017-Nov-10 00:30N 29°43' W 095°14'0 0.0
2017-Nov-10 00:00N 29°43' W 095°14'0 0.0
2017-Nov-09 23:30N 29°43' W 095°14'0 0.0
2017-Nov-09 23:00N 29°43' W 095°14'0 0.0
2017-Nov-09 22:30N 29°43' W 095°14'0 0.0
2017-Nov-09 22:00N 29°43' W 095°14'0 0.0
2017-Nov-09 21:30N 29°43' W 095°14'0 0.0
2017-Nov-09 21:00N 29°43' W 095°14'0 0.0
2017-Nov-09 20:30N 29°43' W 095°14'0 0.0
2017-Nov-09 20:00N 29°43' W 095°14'0 0.0
2017-Nov-09 19:30N 29°43' W 095°14'0 0.0
2017-Nov-09 19:00N 29°43' W 095°14'0 0.0
2017-Nov-09 18:30N 29°43' W 095°14'0 0.0
2017-Nov-09 18:00N 29°43' W 095°14'0 0.0
2017-Nov-09 17:27N 29°43' W 095°14'0 0.9
2017-Nov-09 17:00N 29°43' W 095°14'1 2.8
2017-Nov-09 16:30N 29°44' W 095°13'3 4.7
2017-Nov-09 15:58N 29°45' W 095°10'2 4.7
2017-Nov-09 15:26N 29°44' W 095°08'2 4.3
2017-Nov-09 15:00N 29°45' W 095°06'0 0.0
2017-Nov-07 19:09N 29°45' W 095°06'0 2.7
2017-Nov-07 19:00N 29°45' W 095°06'9 0.2
2017-Nov-06 02:28N 29°37' W 095°01'0 0.0
2017-Nov-06 01:55N 29°37' W 095°01'0 0.0
2017-Nov-06 01:25N 29°37' W 095°01'0 0.0
2017-Nov-06 00:58N 29°37' W 095°01'0 0.0
2017-Nov-06 00:28N 29°37' W 095°01'0 0.0
2017-Nov-05 23:58N 29°37' W 095°01'0 0.0
2017-Nov-05 23:28N 29°37' W 095°01'0 0.0
2017-Nov-05 22:58N 29°37' W 095°01'0 0.0
2017-Nov-05 22:22N 29°37' W 095°01'0 0.0
2017-Nov-05 21:58N 29°37' W 095°01'0 0.0
2017-Nov-05 21:22N 29°37' W 095°01'0 0.0
2017-Nov-05 20:52N 29°37' W 095°01'0 0.0
2017-Nov-05 20:22N 29°37' W 095°01'0 0.0
2017-Nov-05 19:52N 29°37' W 095°01'0 0.0
2017-Nov-05 18:58N 29°37' W 095°01'0 0.0
2017-Nov-05 18:25N 29°37' W 095°01'0 0.0
2017-Nov-05 17:55N 29°37' W 095°01'0 0.0
2017-Nov-05 17:16N 29°37' W 095°01'0 0.0
2017-Nov-05 16:52N 29°37' W 095°01'0 0.0
2017-Nov-05 16:28N 29°37' W 095°01'0 0.0
2017-Nov-05 15:55N 29°37' W 095°01'0 0.0
2017-Nov-05 15:28N 29°37' W 095°01'0 0.0
2017-Nov-05 14:40N 29°37' W 095°01'0 0.0
2017-Nov-05 14:16N 29°37' W 095°01'0 0.0
2017-Nov-05 13:43N 29°37' W 095°01'0 0.0
2017-Nov-05 13:28N 29°37' W 095°01'0 0.0
2017-Nov-05 12:58N 29°37' W 095°01'0 0.0
2017-Nov-05 12:25N 29°37' W 095°01'0 0.0
2017-Nov-05 11:58N 29°37' W 095°01'0 0.0
2017-Nov-05 11:25N 29°37' W 095°01'0 0.0
2017-Nov-05 10:58N 29°37' W 095°01'0 0.0
2017-Nov-05 10:31N 29°37' W 095°01'0 0.0
2017-Nov-05 09:57N 29°37' W 095°01'0 0.0
2017-Nov-05 09:30N 29°37' W 095°01'0 0.0
2017-Nov-05 09:00N 29°37' W 095°01'0 0.0
2017-Nov-05 08:18N 29°37' W 095°01'0 0.0
2017-Nov-05 07:57N 29°37' W 095°01'0 0.0
2017-Nov-05 07:24N 29°37' W 095°01'0 0.0
2017-Nov-05 06:54N 29°37' W 095°01'0 0.0
2017-Nov-05 06:06N 29°37' W 095°01'0 0.0
2017-Nov-05 05:54N 29°37' W 095°01'0 0.0
2017-Nov-05 05:30N 29°37' W 095°01'0 0.0
2017-Nov-05 04:48N 29°37' W 095°01'0 0.0
2017-Nov-05 04:21N 29°37' W 095°01'0 0.0
2017-Nov-05 03:57N 29°37' W 095°01'0 0.0
2017-Nov-05 03:27N 29°37' W 095°01'0 0.0
2017-Nov-05 02:51N 29°37' W 095°01'0 0.0
2017-Nov-05 02:30N 29°37' W 095°01'0 0.0
2017-Nov-05 01:54N 29°37' W 095°01'0 0.0
2017-Nov-05 01:24N 29°37' W 095°01'0 0.0
2017-Nov-05 00:51N 29°37' W 095°01'0 0.0
2017-Nov-05 00:24N 29°37' W 095°01'0 0.0
2017-Nov-05 00:00N 29°37' W 095°01'0 0.0
2017-Nov-04 23:30N 29°37' W 095°01'0 0.0
2017-Nov-04 22:48N 29°37' W 095°01'0 0.0
2017-Nov-04 22:27N 29°37' W 095°01'0 0.0
2017-Nov-04 22:00N 29°37' W 095°01'0 0.0
2017-Nov-04 21:21N 29°37' W 095°01'0 0.0
2017-Nov-04 20:54N 29°37' W 095°01'0 0.0
2017-Nov-04 20:21N 29°37' W 095°01'0 0.0
2017-Nov-04 19:57N 29°37' W 095°01'0 0.0
2017-Nov-04 19:09N 29°37' W 095°01'0 0.0
2017-Nov-04 18:57N 29°37' W 095°01'0 0.0
2017-Nov-04 18:18N 29°37' W 095°01'0 0.0
2017-Nov-04 18:00N 29°37' W 095°01'0 0.0
2017-Nov-04 17:27N 29°37' W 095°01'0 0.0
2017-Nov-04 16:57N 29°37' W 095°01'0 0.0
2017-Nov-04 16:27N 29°37' W 095°01'0 0.0
2017-Nov-04 15:51N 29°37' W 095°01'0 0.0
2017-Nov-04 15:24N 29°37' W 095°01'0 0.0
2017-Nov-04 15:00N 29°37' W 095°01'0 0.0
2017-Nov-04 13:57N 29°37' W 095°01'0 0.0
2017-Nov-04 13:27N 29°37' W 095°01'0 0.0
2017-Nov-04 12:51N 29°37' W 095°01'0 0.0
2017-Nov-04 12:15N 29°37' W 095°01'0 0.0
2017-Nov-04 11:42N 29°37' W 095°01'0 0.0
2017-Nov-04 11:24N 29°37' W 095°01'0 0.1
2017-Nov-04 11:00N 29°37' W 095°01'1 1.4
2017-Nov-04 10:30N 29°37' W 095°00'3 5.1
2017-Nov-04 10:00N 29°38' W 094°58'5 9.5
2017-Nov-04 09:30N 29°42' W 095°00'3 6.5
2017-Nov-04 09:00N 29°44' W 095°03'3 4.9
2017-Nov-04 08:29N 29°45' W 095°06'2 4.0
2017-Nov-04 08:00N 29°44' W 095°08'0 0.0
2017-Nov-03 00:16N 29°44' W 095°08'0 0.0
2017-Nov-02 23:46N 29°44' W 095°08'0 0.0
2017-Nov-02 23:27N 29°44' W 095°08'0 0.0
2017-Nov-02 22:53N 29°44' W 095°08'0 0.0
2017-Nov-02 22:29N 29°44' W 095°08'0 0.0
2017-Nov-02 21:45N 29°44' W 095°08'0 0.0
2017-Nov-02 21:27N 29°44' W 095°08'0 0.0
2017-Nov-02 20:52N 29°44' W 095°08'0 1.0
2017-Nov-02 20:24N 29°44' W 095°08'2 5.4
2017-Nov-02 19:59N 29°45' W 095°06'4 6.6
2017-Nov-02 19:25N 29°44' W 095°02'2 5.6
2017-Nov-02 18:59N 29°42' W 094°60'4 8.1
2017-Nov-02 18:30N 29°38' W 094°58'4 8.6
2017-Nov-02 18:00N 29°34' W 094°56'4 8.1
2017-Nov-02 17:30N 29°31' W 094°53'5 8.3
2017-Nov-02 16:55N 29°27' W 094°51'  
Track history (hours):
 
Tides and Currents Weather Stations Pressure Air Temp Water Temp Dewpoint Dewpoint Depression Visibility Wind Speed Wind Dir Waves Ship Positions

Bow Sirius

Last reported at 2017-Nov-10 17:17 UTC. Time now 2017-Nov-24 14:57 UTC.
Position N 29°24' W 094°49'.
Warning: this ship's position is 13 days out of date.

Length 183 m; draft 11.5 m.

Type: Tanker. MMSI: 258910000.

Date/timePositionNaut miles runAvg speedWind from/ knotsBaromVisibWave heightAir tempDewpointWater temp
2017-Nov-10 17:17N 29°24' W 094°49'311.7
2017-Nov-10 17:01N 29°27' W 094°50'510.7
2017-Nov-10 16:31N 29°31' W 094°53'510.3
2017-Nov-10 16:01N 29°36' W 094°57'5 9.2
2017-Nov-10 15:31N 29°40' W 094°59'4 7.8
2017-Nov-10 14:59N 29°43' W 095°01'3 5.8
2017-Nov-10 14:30N 29°45' W 095°04'3 5.2
2017-Nov-10 13:57N 29°44' W 095°07'2 5.6
2017-Nov-10 13:31N 29°45' W 095°10'3 5.1
2017-Nov-10 12:56N 29°43' W 095°13'1 0.4
2017-Nov-10 10:45N 29°43' W 095°14'0 0.0
2017-Nov-10 10:30N 29°43' W 095°14'0 0.0
2017-Nov-10 10:00N 29°43' W 095°14'0 0.0
2017-Nov-10 09:30N 29°43' W 095°14'0 0.0
2017-Nov-10 09:00N 29°43' W 095°14'0 0.0
2017-Nov-10 08:30N 29°43' W 095°14'0 0.0
2017-Nov-10 08:00N 29°43' W 095°14'0 0.0
2017-Nov-10 07:30N 29°43' W 095°14'0 0.0
2017-Nov-10 07:00N 29°43' W 095°14'0 0.0
2017-Nov-10 06:30N 29°43' W 095°14'0 0.0
2017-Nov-10 06:00N 29°43' W 095°14'0 0.0
2017-Nov-10 05:30N 29°43' W 095°14'0 0.0
2017-Nov-10 05:00N 29°43' W 095°14'0 0.0
2017-Nov-10 04:30N 29°43' W 095°14'0 0.0
2017-Nov-10 04:00N 29°43' W 095°14'0 0.0
2017-Nov-10 03:30N 29°43' W 095°14'0 0.0
2017-Nov-10 03:00N 29°43' W 095°14'0 0.0
2017-Nov-10 02:30N 29°43' W 095°14'0 0.0
2017-Nov-10 02:00N 29°43' W 095°14'0 0.0
2017-Nov-10 01:30N 29°43' W 095°14'0 0.0
2017-Nov-10 01:00N 29°43' W 095°14'0 0.0
2017-Nov-10 00:30N 29°43' W 095°14'0 0.0
2017-Nov-10 00:00N 29°43' W 095°14'0 0.0
2017-Nov-09 23:30N 29°43' W 095°14'0 0.0
2017-Nov-09 23:00N 29°43' W 095°14'0 0.0
2017-Nov-09 22:30N 29°43' W 095°14'0 0.0
2017-Nov-09 22:00N 29°43' W 095°14'0 0.0
2017-Nov-09 21:30N 29°43' W 095°14'0 0.0
2017-Nov-09 21:00N 29°43' W 095°14'0 0.0
2017-Nov-09 20:30N 29°43' W 095°14'0 0.0
2017-Nov-09 20:00N 29°43' W 095°14'0 0.0
2017-Nov-09 19:30N 29°43' W 095°14'0 0.0
2017-Nov-09 19:00N 29°43' W 095°14'0 0.0
2017-Nov-09 18:30N 29°43' W 095°14'0 0.0
2017-Nov-09 18:00N 29°43' W 095°14'0 0.0
2017-Nov-09 17:27N 29°43' W 095°14'0 0.9
2017-Nov-09 17:00N 29°43' W 095°14'1 2.8
2017-Nov-09 16:30N 29°44' W 095°13'3 4.7
2017-Nov-09 15:58N 29°45' W 095°10'2 4.7
2017-Nov-09 15:26N 29°44' W 095°08'2 4.3
2017-Nov-09 15:00N 29°45' W 095°06'0 0.0
2017-Nov-07 19:09N 29°45' W 095°06'0 2.7
2017-Nov-07 19:00N 29°45' W 095°06'9 0.2
2017-Nov-06 02:28N 29°37' W 095°01'0 0.0
2017-Nov-06 01:55N 29°37' W 095°01'0 0.0
2017-Nov-06 01:25N 29°37' W 095°01'0 0.0
2017-Nov-06 00:58N 29°37' W 095°01'0 0.0
2017-Nov-06 00:28N 29°37' W 095°01'0 0.0
2017-Nov-05 23:58N 29°37' W 095°01'0 0.0
2017-Nov-05 23:28N 29°37' W 095°01'0 0.0
2017-Nov-05 22:58N 29°37' W 095°01'0 0.0
2017-Nov-05 22:22N 29°37' W 095°01'0 0.0
2017-Nov-05 21:58N 29°37' W 095°01'0 0.0
2017-Nov-05 21:22N 29°37' W 095°01'0 0.0
2017-Nov-05 20:52N 29°37' W 095°01'0 0.0
2017-Nov-05 20:22N 29°37' W 095°01'0 0.0
2017-Nov-05 19:52N 29°37' W 095°01'0 0.0
2017-Nov-05 18:58N 29°37' W 095°01'0 0.0
2017-Nov-05 18:25N 29°37' W 095°01'0 0.0
2017-Nov-05 17:55N 29°37' W 095°01'0 0.0
2017-Nov-05 17:16N 29°37' W 095°01'0 0.0
2017-Nov-05 16:52N 29°37' W 095°01'0 0.0
2017-Nov-05 16:28N 29°37' W 095°01'0 0.0
2017-Nov-05 15:55N 29°37' W 095°01'0 0.0
2017-Nov-05 15:28N 29°37' W 095°01'0 0.0
2017-Nov-05 14:40N 29°37' W 095°01'0 0.0
2017-Nov-05 14:16N 29°37' W 095°01'0 0.0
2017-Nov-05 13:43N 29°37' W 095°01'0 0.0
2017-Nov-05 13:28N 29°37' W 095°01'0 0.0
2017-Nov-05 12:58N 29°37' W 095°01'0 0.0
2017-Nov-05 12:25N 29°37' W 095°01'0 0.0
2017-Nov-05 11:58N 29°37' W 095°01'0 0.0
2017-Nov-05 11:25N 29°37' W 095°01'0 0.0
2017-Nov-05 10:58N 29°37' W 095°01'0 0.0
2017-Nov-05 10:31N 29°37' W 095°01'0 0.0
2017-Nov-05 09:57N 29°37' W 095°01'0 0.0
2017-Nov-05 09:30N 29°37' W 095°01'0 0.0
2017-Nov-05 09:00N 29°37' W 095°01'0 0.0
2017-Nov-05 08:18N 29°37' W 095°01'0 0.0
2017-Nov-05 07:57N 29°37' W 095°01'0 0.0
2017-Nov-05 07:24N 29°37' W 095°01'0 0.0
2017-Nov-05 06:54N 29°37' W 095°01'0 0.0
2017-Nov-05 06:06N 29°37' W 095°01'0 0.0
2017-Nov-05 05:54N 29°37' W 095°01'0 0.0
2017-Nov-05 05:30N 29°37' W 095°01'0 0.0
2017-Nov-05 04:48N 29°37' W 095°01'0 0.0
2017-Nov-05 04:21N 29°37' W 095°01'0 0.0
2017-Nov-05 03:57N 29°37' W 095°01'0 0.0
2017-Nov-05 03:27N 29°37' W 095°01'0 0.0
2017-Nov-05 02:51N 29°37' W 095°01'0 0.0
2017-Nov-05 02:30N 29°37' W 095°01'0 0.0
2017-Nov-05 01:54N 29°37' W 095°01'0 0.0
2017-Nov-05 01:24N 29°37' W 095°01'0 0.0
2017-Nov-05 00:51N 29°37' W 095°01'0 0.0
2017-Nov-05 00:24N 29°37' W 095°01'0 0.0
2017-Nov-05 00:00N 29°37' W 095°01'0 0.0
2017-Nov-04 23:30N 29°37' W 095°01'0 0.0
2017-Nov-04 22:48N 29°37' W 095°01'0 0.0
2017-Nov-04 22:27N 29°37' W 095°01'0 0.0
2017-Nov-04 22:00N 29°37' W 095°01'0 0.0
2017-Nov-04 21:21N 29°37' W 095°01'0 0.0
2017-Nov-04 20:54N 29°37' W 095°01'0 0.0
2017-Nov-04 20:21N 29°37' W 095°01'0 0.0
2017-Nov-04 19:57N 29°37' W 095°01'0 0.0
2017-Nov-04 19:09N 29°37' W 095°01'0 0.0
2017-Nov-04 18:57N 29°37' W 095°01'0 0.0
2017-Nov-04 18:18N 29°37' W 095°01'0 0.0
2017-Nov-04 18:00N 29°37' W 095°01'0 0.0
2017-Nov-04 17:27N 29°37' W 095°01'0 0.0
2017-Nov-04 16:57N 29°37' W 095°01'0 0.0
2017-Nov-04 16:27N 29°37' W 095°01'0 0.0
2017-Nov-04 15:51N 29°37' W 095°01'0 0.0
2017-Nov-04 15:24N 29°37' W 095°01'0 0.0
2017-Nov-04 15:00N 29°37' W 095°01'0 0.0
2017-Nov-04 13:57N 29°37' W 095°01'0 0.0
2017-Nov-04 13:27N 29°37' W 095°01'0 0.0
2017-Nov-04 12:51N 29°37' W 095°01'0 0.0
2017-Nov-04 12:15N 29°37' W 095°01'0 0.0
2017-Nov-04 11:42N 29°37' W 095°01'0 0.0
2017-Nov-04 11:24N 29°37' W 095°01'0 0.1
2017-Nov-04 11:00N 29°37' W 095°01'1 1.4
2017-Nov-04 10:30N 29°37' W 095°00'3 5.1
2017-Nov-04 10:00N 29°38' W 094°58'5 9.5
2017-Nov-04 09:30N 29°42' W 095°00'3 6.5
2017-Nov-04 09:00N 29°44' W 095°03'3 4.9
2017-Nov-04 08:29N 29°45' W 095°06'2 4.0
2017-Nov-04 08:00N 29°44' W 095°08'0 0.0
2017-Nov-03 00:16N 29°44' W 095°08'0 0.0
2017-Nov-02 23:46N 29°44' W 095°08'0 0.0
2017-Nov-02 23:27N 29°44' W 095°08'0 0.0
2017-Nov-02 22:53N 29°44' W 095°08'0 0.0
2017-Nov-02 22:29N 29°44' W 095°08'0 0.0
2017-Nov-02 21:45N 29°44' W 095°08'0 0.0
2017-Nov-02 21:27N 29°44' W 095°08'0 0.0
2017-Nov-02 20:52N 29°44' W 095°08'0 1.0
2017-Nov-02 20:24N 29°44' W 095°08'2 5.4
2017-Nov-02 19:59N 29°45' W 095°06'4 6.6
2017-Nov-02 19:25N 29°44' W 095°02'2 5.6
2017-Nov-02 18:59N 29°42' W 094°60'4 8.1
2017-Nov-02 18:30N 29°38' W 094°58'4 8.6
2017-Nov-02 18:00N 29°34' W 094°56'4 8.1
2017-Nov-02 17:30N 29°31' W 094°53'5 8.3
2017-Nov-02 16:55N 29°27' W 094°51'  

Dump ship's entire track history